Time,TemperatureF,DewpointF,PressureIn,WindDirection,WindDirectionDegrees,WindSpeedMPH,WindSpeedGustMPH,Humidity,HourlyPrecipIn,Conditions,Clouds,dailyrainin,SoftwareType,DateUTC
2013-02-27 00:33:00,31.0,31.0,-100.00,North,0,5.0,9.0,99,-99.99,,,-99.99,,2013-02-27 06:33:00,
2013-02-27 00:42:00,31.0,31.0,-100.00,North,0,5.0,9.0,99,-99.99,,,-99.99,,2013-02-27 06:42:00,
2013-02-27 00:52:00,31.0,31.0,-100.00,North,0,5.0,9.0,99,-99.99,,,-99.99,,2013-02-27 06:52:00,
2013-02-27 01:01:00,31.0,31.0,-100.00,North,0,5.0,9.0,99,-99.99,,,-99.99,,2013-02-27 07:01:00,
2013-02-27 01:32:00,31.0,30.0,-100.00,NNW,330,4.0,6.0,99,-99.99,,,-99.99,,2013-02-27 07:32:00,
2013-02-27 01:42:00,31.0,30.0,-100.00,NNW,330,4.0,6.0,99,-99.99,,,-99.99,,2013-02-27 07:42:00,
2013-02-27 01:52:00,31.0,30.0,-100.00,NNW,330,4.0,6.0,99,-99.99,,,-99.99,,2013-02-27 07:52:00,
2013-02-27 02:01:00,31.0,30.0,-100.00,NNW,330,4.0,6.0,99,-99.99,,,-99.99,,2013-02-27 08:01:00,
2013-02-27 02:02:00,30.0,30.0,-100.00,North,0,3.0,4.0,99,-99.99,,,-99.99,,2013-02-27 08:02:00,
2013-02-27 02:32:00,30.0,30.0,-100.00,North,0,3.0,4.0,99,-99.99,,,-99.99,,2013-02-27 08:32:00,
2013-02-27 02:42:00,30.0,30.0,-100.00,North,0,3.0,4.0,99,-99.99,,,-99.99,,2013-02-27 08:42:00,
2013-02-27 02:53:00,30.0,30.0,-100.00,North,0,3.0,4.0,99,-99.99,,,-99.99,,2013-02-27 08:53:00,
2013-02-27 03:32:00,30.0,30.0,-100.00,North,0,6.0,10.0,99,-99.99,,,-99.99,,2013-02-27 09:32:00,
2013-02-27 03:42:00,30.0,30.0,-100.00,North,0,6.0,10.0,99,-99.99,,,-99.99,,2013-02-27 09:42:00,
2013-02-27 03:52:00,30.0,30.0,-100.00,North,0,6.0,10.0,99,-99.99,,,-99.99,,2013-02-27 09:52:00,
2013-02-27 04:01:00,30.0,30.0,-100.00,North,0,6.0,10.0,99,-99.99,,,-99.99,,2013-02-27 10:01:00,
2013-02-27 04:02:00,29.0,29.0,-100.00,NNW,345,6.0,9.0,99,-99.99,,,-99.99,,2013-02-27 10:02:00,
2013-02-27 04:32:00,29.0,29.0,-100.00,NNW,345,6.0,9.0,99,-99.99,,,-99.99,,2013-02-27 10:32:00,
2013-02-27 04:42:00,29.0,29.0,-100.00,NNW,345,6.0,9.0,99,-99.99,,,-99.99,,2013-02-27 10:42:00,
2013-02-27 04:53:00,29.0,29.0,-100.00,NNW,345,6.0,9.0,99,-99.99,,,-99.99,,2013-02-27 10:53:00,
2013-02-27 05:02:00,29.0,29.0,-100.00,NNE,25,2.0,4.0,99,-99.99,,,-99.99,,2013-02-27 11:02:00,
2013-02-27 05:32:00,29.0,29.0,-100.00,NNE,25,2.0,4.0,99,-99.99,,,-99.99,,2013-02-27 11:32:00,
2013-02-27 05:42:00,29.0,29.0,-100.00,NNE,25,2.0,4.0,99,-99.99,,,-99.99,,2013-02-27 11:42:00,
2013-02-27 05:52:00,29.0,29.0,-100.00,NNE,25,2.0,4.0,99,-99.99,,,-99.99,,2013-02-27 11:52:00,
2013-02-27 06:02:00,28.0,28.0,-100.00,NW,320,7.0,10.0,99,-99.99,,,-99.99,,2013-02-27 12:02:00,
2013-02-27 06:33:00,28.0,28.0,-100.00,NW,320,7.0,10.0,99,-99.99,,,-99.99,,2013-02-27 12:33:00,
2013-02-27 06:42:00,28.0,28.0,-100.00,NW,320,7.0,10.0,99,-99.99,,,-99.99,,2013-02-27 12:42:00,
2013-02-27 06:52:00,28.0,28.0,-100.00,NW,320,7.0,10.0,99,-99.99,,,-99.99,,2013-02-27 12:52:00,
2013-02-27 07:02:00,27.0,27.0,-100.00,North,0,5.0,8.0,99,-99.99,,,-99.99,,2013-02-27 13:02:00,
2013-02-27 07:32:00,27.0,27.0,-100.00,North,0,5.0,8.0,99,-99.99,,,-99.99,,2013-02-27 13:32:00,
2013-02-27 07:42:00,27.0,27.0,-100.00,North,0,5.0,8.0,99,-99.99,,,-99.99,,2013-02-27 13:42:00,
2013-02-27 07:52:00,27.0,27.0,-100.00,North,0,5.0,8.0,99,-99.99,,,-99.99,,2013-02-27 13:52:00,
2013-02-27 08:02:00,27.0,27.0,-100.00,North,0,4.0,7.0,99,-99.99,,,-99.99,,2013-02-27 14:02:00,
2013-02-27 08:32:00,27.0,27.0,-100.00,North,0,4.0,7.0,99,-99.99,,,-99.99,,2013-02-27 14:32:00,
2013-02-27 08:42:00,27.0,27.0,-100.00,North,0,4.0,7.0,99,-99.99,,,-99.99,,2013-02-27 14:42:00,
2013-02-27 08:52:00,27.0,27.0,-100.00,North,0,4.0,7.0,99,-99.99,,,-99.99,,2013-02-27 14:52:00,
2013-02-27 09:02:00,27.0,26.0,-100.00,North,0,7.0,9.0,99,-99.99,,,-99.99,,2013-02-27 15:02:00,
2013-02-27 09:32:00,27.0,26.0,-100.00,North,0,7.0,9.0,99,-99.99,,,-99.99,,2013-02-27 15:32:00,
2013-02-27 09:42:00,27.0,26.0,-100.00,North,0,7.0,9.0,99,-99.99,,,-99.99,,2013-02-27 15:42:00,
2013-02-27 09:52:00,27.0,26.0,-100.00,North,0,7.0,9.0,99,-99.99,,,-99.99,,2013-02-27 15:52:00,
2013-02-27 11:32:00,29.0,26.0,-100.00,North,0,4.0,9.0,88,-99.99,,,-99.99,,2013-02-27 17:32:00,
2013-02-27 11:42:00,29.0,26.0,-100.00,North,0,4.0,9.0,88,-99.99,,,-99.99,,2013-02-27 17:42:00,
2013-02-27 11:52:00,29.0,26.0,-100.00,North,0,4.0,9.0,88,-99.99,,,-99.99,,2013-02-27 17:52:00,
2013-02-27 12:01:00,29.0,26.0,-100.00,North,0,4.0,9.0,88,-99.99,,,-99.99,,2013-02-27 18:01:00,
2013-02-27 12:32:00,31.0,26.0,-100.00,NNW,345,6.0,9.0,82,-99.99,,,-99.99,,2013-02-27 18:32:00,
2013-02-27 12:42:00,31.0,26.0,-100.00,NNW,345,6.0,9.0,82,-99.99,,,-99.99,,2013-02-27 18:42:00,
2013-02-27 12:52:00,31.0,26.0,-100.00,NNW,345,6.0,9.0,82,-99.99,,,-99.99,,2013-02-27 18:52:00,
2013-02-27 13:01:00,31.0,26.0,-100.00,NNW,345,6.0,9.0,82,-99.99,,,-99.99,,2013-02-27 19:01:00,
2013-02-27 13:32:00,31.0,27.0,-100.00,North,0,8.0,13.0,84,-99.99,,,-99.99,,2013-02-27 19:32:00,
2013-02-27 13:42:00,31.0,27.0,-100.00,North,0,8.0,13.0,84,-99.99,,,-99.99,,2013-02-27 19:42:00,
2013-02-27 13:52:00,31.0,27.0,-100.00,North,0,8.0,13.0,84,-99.99,,,-99.99,,2013-02-27 19:52:00,
2013-02-27 14:01:00,31.0,27.0,-100.00,North,0,8.0,13.0,84,-99.99,,,-99.99,,2013-02-27 20:01:00,
2013-02-27 15:32:00,31.0,26.0,-100.00,North,0,8.0,11.0,84,-99.99,,,-99.99,,2013-02-27 21:32:00,
2013-02-27 15:42:00,31.0,26.0,-100.00,North,0,8.0,11.0,84,-99.99,,,-99.99,,2013-02-27 21:42:00,
2013-02-27 15:52:00,31.0,26.0,-100.00,North,0,8.0,11.0,84,-99.99,,,-99.99,,2013-02-27 21:52:00,
2013-02-27 16:01:00,31.0,26.0,-100.00,North,0,8.0,11.0,84,-99.99,,,-99.99,,2013-02-27 22:01:00,
2013-02-27 16:32:00,30.0,26.0,-100.00,North,355,4.0,6.0,85,-99.99,,,-99.99,,2013-02-27 22:32:00,
2013-02-27 16:42:00,30.0,26.0,-100.00,North,355,4.0,6.0,85,-99.99,,,-99.99,,2013-02-27 22:42:00,
2013-02-27 16:52:00,30.0,26.0,-100.00,North,355,4.0,6.0,85,-99.99,,,-99.99,,2013-02-27 22:52:00,
2013-02-27 17:01:00,30.0,26.0,-100.00,North,355,4.0,6.0,85,-99.99,,,-99.99,,2013-02-27 23:01:00,
2013-02-27 17:32:00,30.0,26.0,-100.00,ENE,60,4.0,6.0,87,-99.99,,,-99.99,,2013-02-27 23:32:00,
2013-02-27 17:42:00,30.0,26.0,-100.00,ENE,60,4.0,6.0,87,-99.99,,,-99.99,,2013-02-27 23:42:00,
2013-02-27 17:53:00,30.0,26.0,-100.00,ENE,60,4.0,6.0,87,-99.99,,,-99.99,,2013-02-27 23:53:00,
2013-02-27 18:01:00,30.0,26.0,-100.00,ENE,60,4.0,6.0,87,-99.99,,,-99.99,,2013-02-28 00:01:00,
2013-02-27 18:32:00,29.0,26.0,-100.00,North,0,2.0,4.0,90,-99.99,,,-99.99,,2013-02-28 00:32:00,
2013-02-27 18:42:00,29.0,26.0,-100.00,North,0,2.0,4.0,90,-99.99,,,-99.99,,2013-02-28 00:42:00,
2013-02-27 18:52:00,29.0,26.0,-100.00,North,0,2.0,4.0,90,-99.99,,,-99.99,,2013-02-28 00:52:00,
2013-02-27 19:01:00,29.0,26.0,-100.00,North,0,2.0,4.0,90,-99.99,,,-99.99,,2013-02-28 01:01:00,
2013-02-27 19:32:00,28.0,26.0,-100.00,North,0,4.0,6.0,92,-99.99,,,-99.99,,2013-02-28 01:32:00,
2013-02-27 19:42:00,28.0,26.0,-100.00,North,0,4.0,6.0,92,-99.99,,,-99.99,,2013-02-28 01:42:00,
2013-02-27 19:52:00,28.0,26.0,-100.00,North,0,4.0,6.0,92,-99.99,,,-99.99,,2013-02-28 01:52:00,
2013-02-27 20:01:00,28.0,26.0,-100.00,North,0,4.0,6.0,92,-99.99,,,-99.99,,2013-02-28 02:01:00,
2013-02-27 20:32:00,27.0,26.0,-100.00,North,0,7.0,9.0,95,-99.99,,,-99.99,,2013-02-28 02:32:00,
2013-02-27 20:42:00,27.0,26.0,-100.00,North,0,7.0,9.0,95,-99.99,,,-99.99,,2013-02-28 02:42:00,
2013-02-27 20:52:00,27.0,26.0,-100.00,North,0,7.0,9.0,95,-99.99,,,-99.99,,2013-02-28 02:52:00,
2013-02-27 21:01:00,27.0,26.0,-100.00,North,0,7.0,9.0,95,-99.99,,,-99.99,,2013-02-28 03:01:00,
2013-02-27 21:32:00,25.0,25.0,-100.00,North,0,5.0,8.0,99,-99.99,,,-99.99,,2013-02-28 03:32:00,
2013-02-27 21:42:00,25.0,25.0,-100.00,North,0,5.0,8.0,99,-99.99,,,-99.99,,2013-02-28 03:42:00,
2013-02-27 21:52:00,25.0,25.0,-100.00,North,0,5.0,8.0,99,-99.99,,,-99.99,,2013-02-28 03:52:00,
2013-02-27 22:01:00,25.0,25.0,-100.00,North,0,5.0,8.0,99,-99.99,,,-99.99,,2013-02-28 04:01:00,
2013-02-27 22:32:00,23.0,23.0,-100.00,NNW,345,6.0,9.0,99,-99.99,,,-99.99,,2013-02-28 04:32:00,
2013-02-27 22:42:00,23.0,23.0,-100.00,NNW,345,6.0,9.0,99,-99.99,,,-99.99,,2013-02-28 04:42:00,
2013-02-27 22:52:00,23.0,23.0,-100.00,NNW,345,6.0,9.0,99,-99.99,,,-99.99,,2013-02-28 04:52:00,
2013-02-27 23:01:00,23.0,23.0,-100.00,NNW,345,6.0,9.0,99,-99.99,,,-99.99,,2013-02-28 05:01:00,